This is the latest recevied weather packets stored in our database for station/object TA3HRJ-12. If no packets are shown the sender has not sent any weather packets the latest 10 day(s).
| Time | Temp. | Humidity | Pressure | Rain* | Wind** | Luminosity | Snow |
|---|---|---|---|---|---|---|---|
| 1777732788 | 15° C | 39% | 1023.9 hPa | - | - | - | - |
| 1777731887 | 15.56° C | 38% | 1023.9 hPa | - | - | - | - |
| 1777730987 | 15° C | 39% | 1024 hPa | - | - | - | - |
| 1777730087 | 15.56° C | 40% | 1024.2 hPa | - | - | - | - |
| 1777729187 | 14.44° C | 40% | 1024.2 hPa | - | - | - | - |
| 1777728287 | 15° C | 39% | 1024.1 hPa | - | - | - | - |
| 1777727387 | 15° C | 38% | 1023.8 hPa | - | - | - | - |
| 1777726487 | 16.67° C | 34% | 1023.7 hPa | - | - | - | - |
| 1777725587 | 16.11° C | 35% | 1023.9 hPa | - | - | - | - |
| 1777724687 | 17.78° C | 32% | 1023.9 hPa | - | - | - | - |
| 1777723787 | 16.11° C | 35% | 1023.9 hPa | - | - | - | - |
| 1777722887 | 16.67° C | 32% | 1024.4 hPa | - | - | - | - |
| 1777721986 | 18.33° C | 30% | 1024.4 hPa | - | - | - | - |
| 1777721086 | 18.33° C | 30% | 1024.3 hPa | - | - | - | - |
| 1777720186 | 17.78° C | 31% | 1024.4 hPa | - | - | - | - |
| 1777719286 | 16.67° C | 32% | 1024.4 hPa | - | - | - | - |
| 1777718386 | 16.67° C | 31% | 1024.7 hPa | - | - | - | - |
| 1777717486 | 16.67° C | 31% | 1024.8 hPa | - | - | - | - |
| 1777716586 | 17.22° C | 30% | 1024.8 hPa | - | - | - | - |
| 1777715686 | 17.78° C | 30% | 1024.9 hPa | - | - | - | - |
| 1777714786 | 17.78° C | 30% | 1025.1 hPa | - | - | - | - |
| 1777713886 | 20.56° C | 27% | 1024.9 hPa | - | - | - | - |
| 1777712985 | 19.44° C | 27% | 1025.1 hPa | - | - | - | - |
| 1777712085 | 18.89° C | 28% | 1025.1 hPa | - | - | - | - |
| 1777711185 | 17.78° C | 30% | 1025.4 hPa | - | - | - | - |
* Rain since midnight (hover to see other rain measurements)
** Current wind speed in m/s (hover to see current wind gust speed)